createdAt,value
2019-04-23T00:02:51.116Z,75977.17
2019-04-23T00:08:18.896Z,75979.17
2019-04-23T00:13:12.472Z,75982.16
2019-04-23T00:18:22.282Z,75970.19
2019-04-23T00:23:35.067Z,75995.14
2019-04-23T00:28:47.906Z,75991.15
2019-04-23T00:33:57.537Z,76024.09
2019-04-23T00:39:08.186Z,76012.11
2019-04-23T00:44:25.007Z,76037.06
2019-04-23T00:49:37.235Z,76049.05
2019-04-23T01:10:20.570Z,76063.02
2019-04-23T01:15:37.254Z,76088.98
2019-04-23T01:20:52.038Z,76081.98
2019-04-23T01:25:50.087Z,76088.98
2019-04-23T01:31:18.170Z,76085.98
2019-04-23T01:41:33.320Z,76092.97
2019-04-23T01:57:11.131Z,76114.93
2019-04-23T02:07:35.662Z,76136.89
2019-04-23T02:12:53.617Z,76140.88
2019-04-23T02:18:02.150Z,76143.88
2019-04-23T02:23:19.942Z,76142.88
2019-04-23T02:28:46.070Z,76144.88
2019-04-23T02:33:44.529Z,76156.86
2019-04-23T02:44:11.688Z,76176.82
2019-04-23T02:49:27.255Z,76169.83
2019-04-23T03:00:08.075Z,76174.83
2019-04-23T03:05:04.461Z,76192.80
2019-04-23T03:10:11.817Z,76199.78
2019-04-23T03:20:59.177Z,76200.78
2019-04-23T03:26:08.540Z,76215.75
2019-04-23T03:32:52.675Z,76226.73
2019-04-23T03:37:00.569Z,76231.73
2019-04-23T03:41:56.131Z,76227.73
2019-04-23T03:47:04.194Z,76236.72
2019-04-23T03:52:21.260Z,76228.73
2019-04-23T03:57:25.285Z,76240.71
2019-04-23T04:02:52.728Z,76232.72
2019-04-23T04:13:30.720Z,76243.70
2019-04-23T04:23:53.459Z,76271.66
2019-04-23T04:29:00.649Z,76271.66
2019-04-23T04:39:29.354Z,76258.67
2019-04-23T04:44:42.698Z,76294.62
2019-04-23T04:49:56.516Z,76297.61
2019-04-23T04:55:16.237Z,76286.63
2019-04-23T05:06:11.773Z,76283.64
2019-04-23T05:11:04.751Z,76284.63
2019-04-23T05:21:20.437Z,76282.64
2019-04-23T05:31:36.066Z,76275.65
2019-04-23T05:37:01.865Z,76237.72
2019-04-23T05:42:17.636Z,76240.71
2019-04-23T05:47:58.624Z,76204.77
2019-04-23T05:52:57.795Z,76220.75
2019-04-23T05:58:06.449Z,76194.79
2019-04-23T06:03:16.040Z,76168.83
2019-04-23T06:08:32.016Z,76169.83
2019-04-23T06:13:44.495Z,76140.88
2019-04-23T06:18:56.908Z,76120.92
2019-04-23T06:24:02.395Z,76117.92
2019-04-23T06:39:42.730Z,76069.01
2019-04-23T06:44:58.455Z,76040.06
2019-04-23T06:50:08.198Z,76019.10
2019-04-23T07:00:48.816Z,75981.17
2019-04-23T07:16:33.228Z,75883.34
2019-04-23T07:21:55.955Z,75854.40
2019-04-23T07:26:54.986Z,75801.49
2019-04-23T07:32:13.094Z,75822.45
2019-04-23T07:37:24.117Z,75762.56
2019-04-23T07:42:56.641Z,75765.56
2019-04-23T07:48:16.439Z,75719.64
2019-04-23T07:53:46.648Z,75720.64
2019-04-23T07:58:52.528Z,75657.77
2019-04-23T08:04:12.035Z,75636.80
2019-04-23T08:09:35.399Z,75614.84
2019-04-23T08:14:48.217Z,75549.97
2019-04-23T08:19:56.454Z,75537.98
2019-04-23T08:25:12.595Z,75549.97
2019-04-23T08:30:19.079Z,75514.03
2019-04-23T08:35:35.923Z,75452.16
2019-04-23T08:41:02.570Z,75470.12
2019-04-23T08:46:15.285Z,75513.03
2019-04-23T08:51:38.913Z,75504.05
2019-04-23T08:56:55.056Z,75523.02
2019-04-23T09:02:24.192Z,75447.16
2019-04-23T09:07:35.916Z,75426.20
2019-04-23T09:12:47.438Z,75405.24
2019-04-23T09:23:11.593Z,75390.27
2019-04-23T09:34:16.669Z,75330.39
2019-04-23T09:39:43.073Z,75285.48
2019-04-23T09:45:15.561Z,75243.56
2019-04-23T09:50:24.027Z,75235.58
2019-04-23T09:55:35.623Z,75282.48
2019-04-23T10:05:42.227Z,75187.67
2019-04-23T10:10:45.173Z,75178.69
2019-04-23T10:16:15.370Z,75145.75
2019-04-23T10:21:29.291Z,75097.85
2019-04-23T10:26:41.862Z,75109.83
2019-04-23T10:31:55.673Z,75098.84
2019-04-23T10:37:07.169Z,75025.00
2019-04-23T10:42:21.901Z,75073.90
2019-04-23T10:53:29.959Z,75027.00
2019-04-23T11:04:09.798Z,75005.04
2019-04-23T11:09:29.305Z,74951.16
2019-04-23T11:14:27.131Z,74951.16
2019-04-23T11:19:52.812Z,74788.48
2019-04-23T11:24:50.069Z,74825.41
2019-04-23T11:30:11.925Z,74758.55
2019-04-23T11:35:22.777Z,74898.26
2019-04-23T11:40:40.417Z,74862.34
2019-04-23T11:56:48.726Z,74863.33
2019-04-23T12:07:22.680Z,74801.46
2019-04-23T12:12:43.009Z,74604.88
2019-04-23T12:17:55.934Z,74650.78
2019-04-23T12:23:12.339Z,74431.25
2019-04-23T12:28:23.497Z,74545.00
2019-04-23T12:33:39.126Z,74496.11
2019-04-23T12:38:41.018Z,74483.14
2019-04-23T12:43:57.957Z,74481.14
2019-04-23T12:49:34.377Z,74411.30
2019-04-23T12:54:41.269Z,74268.61
2019-04-23T12:59:56.951Z,74435.24
2019-04-23T13:10:45.279Z,74344.44
2019-04-23T13:16:06.404Z,74220.72
2019-04-23T13:21:22.036Z,74176.81
2019-04-23T13:26:23.589Z,74243.66
2019-04-23T13:31:42.244Z,74213.73
2019-04-23T13:36:59.755Z,73993.23
2019-04-23T13:42:40.991Z,74083.03
2019-04-23T14:08:50.465Z,74219.72
2019-04-23T14:14:15.159Z,74208.74
2019-04-23T14:19:22.841Z,74159.86
2019-04-23T14:25:04.962Z,74250.65
2019-04-23T14:29:55.980Z,74245.66
2019-04-23T14:40:37.449Z,74318.50
2019-04-23T14:45:58.147Z,74396.33
2019-04-23T14:50:57.581Z,74368.39
2019-04-23T14:56:09.491Z,74366.39
2019-04-23T15:06:46.709Z,74441.23
2019-04-23T15:12:06.144Z,74454.20
2019-04-23T15:17:07.175Z,74489.13
2019-04-23T15:22:20.328Z,74497.11
2019-04-23T15:33:41.283Z,74444.22
2019-04-23T15:43:51.381Z,74409.30
2019-04-23T15:49:01.279Z,74411.30
2019-04-23T15:54:28.214Z,74418.28
2019-04-23T15:59:55.879Z,74437.23
2019-04-23T16:04:41.747Z,74417.28
2019-04-23T16:10:22.283Z,74457.20
2019-04-23T16:21:10.479Z,74460.19
2019-04-23T16:26:08.706Z,74481.14
2019-04-23T16:31:20.786Z,74519.06
2019-04-23T16:36:32.850Z,74548.00
2019-04-23T16:41:49.093Z,74549.00
2019-04-23T16:47:04.452Z,74531.03
2019-04-23T17:02:34.828Z,74568.95
2019-04-23T17:08:30.637Z,74551.98
2019-04-23T17:18:34.728Z,74555.98
2019-04-23T17:29:16.086Z,74631.82
2019-04-23T17:34:30.758Z,74654.77
2019-04-23T17:40:12.293Z,74623.84
2019-04-23T17:51:16.571Z,74665.75
2019-04-23T18:01:36.030Z,74681.71
2019-04-23T18:12:19.797Z,74718.63
2019-04-23T18:17:24.210Z,74738.59
2019-04-23T18:22:34.026Z,74721.63
2019-04-23T18:27:38.389Z,74755.56
2019-04-23T18:38:18.568Z,74756.55
2019-04-23T18:43:29.391Z,74761.55
2019-04-23T18:59:10.241Z,74847.36
2019-04-23T19:04:54.998Z,74835.39
2019-04-23T19:15:33.746Z,74859.34
2019-04-23T19:20:46.423Z,74870.31
2019-04-23T19:25:40.555Z,74886.28
2019-04-23T19:31:14.724Z,74893.27
2019-04-23T19:36:26.524Z,74915.22
2019-04-23T19:41:55.881Z,74917.22
2019-04-23T19:47:01.737Z,74934.19
2019-04-23T19:57:19.431Z,74945.16
2019-04-23T20:02:45.260Z,74949.16
2019-04-23T20:08:04.487Z,74970.11
2019-04-23T20:12:51.802Z,74969.11
2019-04-23T20:18:05.750Z,74977.09
2019-04-23T20:23:47.785Z,74985.08
2019-04-23T20:29:11.854Z,74995.06
2019-04-23T20:39:45.617Z,75011.03
2019-04-23T20:49:58.264Z,75028.99
2019-04-23T20:55:29.428Z,75052.94
2019-04-23T21:05:44.652Z,75057.94
2019-04-23T21:10:55.394Z,75044.95
2019-04-23T21:16:41.269Z,75064.92
2019-04-23T21:22:13.587Z,75073.90
2019-04-23T21:43:20.611Z,75098.84
2019-04-23T21:48:50.933Z,75090.86
2019-04-23T21:53:46.345Z,75109.83
2019-04-23T22:09:30.018Z,75133.78
2019-04-23T22:14:57.368Z,75150.75
2019-04-23T22:25:45.148Z,75173.70
2019-04-23T22:30:55.041Z,75168.70
2019-04-23T22:36:16.498Z,75170.70
2019-04-23T22:41:17.822Z,75192.66
2019-04-23T22:46:37.139Z,75195.66
2019-04-23T23:02:25.414Z,75228.59
2019-04-23T23:13:18.661Z,75235.58
2019-04-23T23:23:40.373Z,75246.55
2019-04-23T23:28:44.726Z,75244.56
2019-04-23T23:39:25.049Z,75220.61
2019-04-23T23:50:07.382Z,75230.59
2019-04-23T23:55:16.086Z,75251.55
